Time;durP1;ratioP1;P1;durP2;ratioP2;P2;SDS_P1;SDS_P2;PMS_P1;PMS_P2;Temp;Humidity;BMP_temperature;BMP_pressure;BME280_temperature;BME280_humidity;BME280_pressure;Samples;Min_cycle;Max_cycle;Signal;HPM_P1;HPM_P2
2021/10/20 00:00:30;;;;;;;61.65;29.88;;;16.80;93.80;;;;;;4939972;29;20086;-61
2021/10/20 00:02:57;;;;;;;43.28;23.83;;;16.80;93.90;;;;;;4940061;28;20051;-60
2021/10/20 00:05:24;;;;;;;49.10;27.92;;;16.70;94.00;;;;;;4936349;29;20094;-59
2021/10/20 00:07:51;;;;;;;57.80;30.13;;;16.70;94.50;;;;;;4939401;29;20054;-61
2021/10/20 00:10:19;;;;;;;41.15;25.80;;;16.60;94.30;;;;;;4936844;28;20055;-60
2021/10/20 00:12:47;;;;;;;44.90;26.05;;;16.60;94.50;;;;;;4920030;29;20570;-60
2021/10/20 00:15:20;;;;;;;41.20;25.00;;;16.50;94.90;;;;;;4943471;28;20084;-60
2021/10/20 00:17:46;;;;;;;42.65;24.58;;;16.50;95.20;;;;;;4933632;29;20050;-61
2021/10/20 00:20:17;;;;;;;35.00;21.70;;;16.50;95.50;;;;;;4936618;28;20074;-61
2021/10/20 00:22:44;;;;;;;40.10;23.70;;;16.40;94.90;;;;;;4934450;29;20051;-60
2021/10/20 00:25:11;;;;;;;33.75;20.38;;;16.50;95.10;;;;;;4933770;28;20526;-61
2021/10/20 00:27:38;;;;;;;36.13;20.33;;;16.40;95.20;;;;;;4922719;29;20051;-60
2021/10/20 00:30:06;;;;;;;34.15;20.02;;;16.40;95.70;;;;;;4933140;28;20412;-61
2021/10/20 00:32:32;;;;;;;29.55;20.00;;;16.40;96.30;;;;;;4931289;28;20088;-63
2021/10/20 00:34:59;;;;;;;33.75;17.30;;;16.30;95.90;;;;;;4934790;29;20522;-61
2021/10/20 00:37:26;;;;;;;26.38;16.33;;;16.30;95.70;;;;;;4949607;28;20117;-61
2021/10/20 00:39:53;;;;;;;25.15;14.75;;;16.30;95.70;;;;;;4937206;29;20047;-62
2021/10/20 00:42:23;;;;;;;23.90;14.20;;;16.30;95.90;;;;;;4939922;29;20051;-61
2021/10/20 00:44:53;;;;;;;26.73;14.25;;;16.30;96.50;;;;;;4938834;28;20059;-62
2021/10/20 00:47:20;;;;;;;23.02;13.90;;;16.30;96.50;;;;;;4936894;28;20105;-61
2021/10/20 00:49:47;;;;;;;18.55;12.55;;;16.20;95.90;;;;;;4940478;29;20058;-60
2021/10/20 00:52:14;;;;;;;25.42;13.93;;;16.30;96.50;;;;;;4936797;29;20052;-60
2021/10/20 00:54:41;;;;;;;18.05;11.48;;;16.20;96.10;;;;;;4946211;28;20058;-61
2021/10/20 00:57:08;;;;;;;19.30;12.45;;;16.20;96.10;;;;;;4955679;28;20052;-61
2021/10/20 00:59:36;;;;;;;17.05;11.15;;;16.20;96.90;;;;;;4942903;29;20071;-59
2021/10/20 01:02:03;;;;;;;20.92;10.93;;;16.20;96.40;;;;;;4941446;28;20051;-61
2021/10/20 01:04:30;;;;;;;13.63;10.80;;;16.20;96.30;;;;;;4939131;29;20107;-61
2021/10/20 01:06:57;;;;;;;19.27;11.18;;;16.20;96.50;;;;;;4950354;28;20051;-62
2021/10/20 01:09:24;;;;;;;13.93;10.45;;;16.20;96.40;;;;;;4937627;29;20052;-65
2021/10/20 01:11:51;;;;;;;14.95;10.50;;;16.20;96.60;;;;;;4948982;28;20051;-62
2021/10/20 01:14:18;;;;;;;13.50;9.20;;;16.20;96.70;;;;;;4939763;28;20047;-60
2021/10/20 01:16:45;;;;;;;16.13;8.57;;;16.10;96.70;;;;;;4940218;29;20051;-63
2021/10/20 01:19:12;;;;;;;11.80;7.47;;;16.10;96.50;;;;;;4944436;28;20100;-61
2021/10/20 01:21:39;;;;;;;16.98;8.90;;;16.10;96.80;;;;;;4938958;29;20054;-61
2021/10/20 01:24:06;;;;;;;13.77;7.75;;;16.10;96.50;;;;;;4933373;28;20051;-60
2021/10/20 01:26:33;;;;;;;8.95;7.25;;;16.00;96.50;;;;;;4933293;29;20059;-61
2021/10/20 01:29:00;;;;;;;10.63;7.43;;;16.10;96.40;;;;;;4935125;29;20094;-60
2021/10/20 01:31:27;;;;;;;14.57;8.88;;;16.00;96.50;;;;;;4932451;29;20083;-60
2021/10/20 01:33:54;;;;;;;13.45;9.70;;;16.00;96.50;;;;;;4940207;29;20047;-61
2021/10/20 01:36:21;;;;;;;16.70;10.15;;;15.90;96.70;;;;;;4939785;28;20051;-60
2021/10/20 01:38:50;;;;;;;14.02;9.48;;;16.00;96.60;;;;;;4937645;29;20487;-60
2021/10/20 01:41:17;;;;;;;15.43;9.85;;;15.90;96.70;;;;;;4936987;29;20106;-62
2021/10/20 01:43:46;;;;;;;19.85;11.40;;;15.90;96.60;;;;;;4931762;29;20392;-61
2021/10/20 01:46:14;;;;;;;16.77;10.80;;;15.90;96.70;;;;;;4931988;29;20047;-61
2021/10/20 01:48:41;;;;;;;14.43;9.77;;;15.90;96.70;;;;;;4933236;28;20495;-61
2021/10/20 01:51:08;;;;;;;18.25;9.07;;;15.90;96.70;;;;;;4936562;29;20093;-61
2021/10/20 01:53:35;;;;;;;12.45;7.32;;;15.90;96.80;;;;;;4943039;28;20054;-60
2021/10/20 01:56:04;;;;;;;10.32;6.70;;;15.80;96.60;;;;;;4934816;29;20456;-61
2021/10/20 01:58:30;;;;;;;13.83;6.07;;;15.80;96.60;;;;;;4606735;28;9999796;-61
2021/10/20 02:00:57;;;;;;;13.02;7.45;;;15.80;97.00;;;;;;4931415;29;20060;-61
2021/10/20 02:03:25;;;;;;;9.57;7.20;;;15.70;96.80;;;;;;4939639;29;20495;-61
2021/10/20 02:06:16;;;;;;;12.40;7.90;;;15.70;96.80;;;;;;4936007;29;20181;-60
2021/10/20 02:08:43;;;;;;;15.30;8.52;;;15.70;97.00;;;;;;4935702;29;20115;-60
2021/10/20 02:11:10;;;;;;;12.95;8.88;;;15.70;96.90;;;;;;4926669;29;20044;-60
2021/10/20 02:13:38;;;;;;;20.10;9.98;;;15.70;96.80;;;;;;4944527;28;20051;-61
2021/10/20 02:16:05;;;;;;;16.63;10.25;;;15.70;96.80;;;;;;4923846;29;20150;-61
2021/10/20 02:18:32;;;;;;;13.32;10.30;;;15.70;96.90;;;;;;4936416;28;20297;-60
2021/10/20 02:20:59;;;;;;;20.48;10.27;;;15.70;96.90;;;;;;4946036;28;20166;-60
2021/10/20 02:23:26;;;;;;;17.63;10.13;;;15.70;97.00;;;;;;4935543;29;20062;-60
2021/10/20 02:25:54;;;;;;;21.67;11.43;;;15.60;96.90;;;;;;4934021;29;20062;-61
2021/10/20 02:28:21;;;;;;;16.08;9.40;;;15.70;97.40;;;;;;4934552;29;20063;-59
2021/10/20 02:30:48;;;;;;;14.23;8.93;;;15.60;97.20;;;;;;4942810;28;20110;-61
2021/10/20 02:33:14;;;;;;;17.15;9.80;;;15.60;97.00;;;;;;4939925;29;20044;-60
2021/10/20 02:35:41;;;;;;;15.68;9.93;;;15.70;97.10;;;;;;4940801;29;20566;-60
2021/10/20 02:38:08;;;;;;;16.85;10.07;;;15.60;97.10;;;;;;4939058;29;20059;-61
2021/10/20 02:40:35;;;;;;;21.00;10.68;;;15.60;97.10;;;;;;4938124;29;20087;-60
2021/10/20 02:43:02;;;;;;;13.93;8.07;;;15.60;97.30;;;;;;4929790;29;20464;-60
2021/10/20 02:45:29;;;;;;;19.65;9.43;;;15.60;97.10;;;;;;4941204;29;20127;-61
2021/10/20 02:47:56;;;;;;;15.68;9.60;;;15.60;97.20;;;;;;4931143;29;20155;-61
2021/10/20 02:50:23;;;;;;;18.40;9.25;;;15.60;97.20;;;;;;4942293;28;20531;-61
2021/10/20 02:52:50;;;;;;;14.05;9.68;;;15.60;97.20;;;;;;4935677;29;20187;-60
2021/10/20 02:55:16;;;;;;;13.25;8.90;;;15.60;97.30;;;;;;4934464;28;20098;-60
2021/10/20 02:57:43;;;;;;;12.57;8.32;;;15.60;97.40;;;;;;4940588;29;20039;-61
2021/10/20 03:00:10;;;;;;;10.27;6.50;;;15.60;97.40;;;;;;4934806;29;20118;-61
2021/10/20 03:02:40;;;;;;;11.70;6.05;;;15.60;97.60;;;;;;4937187;29;20491;-61
2021/10/20 03:05:08;;;;;;;9.90;6.57;;;15.60;97.30;;;;;;4930846;29;20079;-61
2021/10/20 03:07:35;;;;;;;9.55;5.43;;;15.60;97.50;;;;;;4936191;29;20051;-61
2021/10/20 03:10:06;;;;;;;7.43;4.82;;;15.60;97.20;;;;;;4931979;28;20066;-61
2021/10/20 03:12:32;;;;;;;8.35;4.82;;;15.60;97.50;;;;;;4941572;29;20637;-61
2021/10/20 03:14:59;;;;;;;9.32;5.65;;;15.60;97.30;;;;;;4938945;29;20100;-60
2021/10/20 03:17:26;;;;;;;18.13;5.15;;;15.60;97.30;;;;;;4929307;29;20063;-61
2021/10/20 03:19:53;;;;;;;7.80;4.78;;;15.60;97.50;;;;;;4936018;29;20048;-61
2021/10/20 03:22:20;;;;;;;7.93;3.50;;;15.60;97.30;;;;;;4937225;29;20336;-61
2021/10/20 03:24:47;;;;;;;8.77;4.15;;;15.60;97.30;;;;;;4934419;29;20074;-61
2021/10/20 03:27:17;;;;;;;5.75;4.38;;;15.60;97.20;;;;;;4935132;29;20052;-63
2021/10/20 03:29:44;;;;;;;6.07;4.38;;;15.60;97.40;;;;;;4934466;29;20044;-60
2021/10/20 03:32:11;;;;;;;9.32;4.13;;;15.50;97.10;;;;;;4934106;29;20767;-62
2021/10/20 03:34:38;;;;;;;11.73;5.10;;;15.50;97.40;;;;;;4932705;29;20094;-61
2021/10/20 03:37:05;;;;;;;7.40;4.20;;;15.50;97.30;;;;;;4933250;29;20059;-61
2021/10/20 03:39:32;;;;;;;7.88;4.25;;;15.50;97.30;;;;;;4941234;29;20074;-61
2021/10/20 03:41:58;;;;;;;8.55;4.53;;;15.50;97.20;;;;;;4931870;29;20047;-61
2021/10/20 03:44:25;;;;;;;6.45;4.00;;;15.50;97.30;;;;;;4938570;29;20057;-62
2021/10/20 03:46:52;;;;;;;10.50;4.97;;;15.60;97.40;;;;;;4935978;29;20047;-61
2021/10/20 03:49:19;;;;;;;8.85;4.22;;;15.60;97.40;;;;;;4936053;29;20051;-62
2021/10/20 03:51:46;;;;;;;8.05;4.38;;;15.60;97.30;;;;;;4937162;29;20074;-60
2021/10/20 03:54:13;;;;;;;10.05;4.43;;;15.60;97.30;;;;;;4935293;28;20055;-61
2021/10/20 03:56:40;;;;;;;11.63;5.50;;;15.60;97.60;;;;;;4931304;29;20043;-63
2021/10/20 03:59:07;;;;;;;8.55;5.55;;;15.60;97.40;;;;;;4936506;29;20542;-60
2021/10/20 04:01:33;;;;;;;9.40;5.03;;;15.60;97.50;;;;;;4931057;29;20392;-61
2021/10/20 04:04:01;;;;;;;11.23;5.38;;;15.60;97.50;;;;;;4927330;29;20458;-60
2021/10/20 04:06:27;;;;;;;6.05;3.92;;;15.60;97.40;;;;;;4935025;29;20419;-61
2021/10/20 04:08:54;;;;;;;9.40;4.85;;;15.70;97.40;;;;;;4938717;29;20055;-62
2021/10/20 04:11:21;;;;;;;9.20;4.43;;;15.60;97.40;;;;;;4936011;29;20135;-61
2021/10/20 04:13:48;;;;;;;10.65;5.25;;;15.60;97.40;;;;;;4935928;29;20099;-62
2021/10/20 04:16:15;;;;;;;11.55;5.18;;;15.60;97.70;;;;;;4937373;29;20419;-63
2021/10/20 04:18:42;;;;;;;10.43;4.68;;;15.70;97.50;;;;;;4935867;29;20106;-61
2021/10/20 04:21:09;;;;;;;8.43;4.68;;;15.70;97.80;;;;;;4936066;29;20047;-61
2021/10/20 04:23:36;;;;;;;12.10;4.03;;;15.60;97.70;;;;;;4936476;28;20055;-62
2021/10/20 04:26:03;;;;;;;9.30;4.50;;;15.70;97.80;;;;;;4933806;29;20102;-62
2021/10/20 04:28:30;;;;;;;11.40;3.78;;;15.70;97.80;;;;;;4938634;28;20047;-61
2021/10/20 04:30:57;;;;;;;5.45;3.05;;;15.70;97.80;;;;;;4930484;29;20048;-60
2021/10/20 04:33:23;;;;;;;4.43;3.05;;;15.70;97.70;;;;;;4937087;29;20055;-60
2021/10/20 04:35:51;;;;;;;7.05;2.90;;;15.70;97.90;;;;;;4933771;28;20051;-60
2021/10/20 04:38:18;;;;;;;5.07;2.72;;;15.70;97.90;;;;;;4936240;28;20791;-61
2021/10/20 04:40:44;;;;;;;5.40;2.55;;;15.70;97.70;;;;;;4930833;29;20055;-60
2021/10/20 04:43:11;;;;;;;7.38;2.25;;;15.70;97.80;;;;;;4949163;28;20056;-61
2021/10/20 04:45:38;;;;;;;3.03;1.67;;;15.70;97.70;;;;;;4929944;29;20047;-63
2021/10/20 04:48:05;;;;;;;4.40;2.08;;;15.80;97.90;;;;;;4948042;28;20115;-61
2021/10/20 04:50:32;;;;;;;5.32;1.95;;;15.80;97.80;;;;;;4932297;29;20181;-61
2021/10/20 04:52:59;;;;;;;2.70;2.05;;;15.80;97.70;;;;;;4933397;29;20075;-59
2021/10/20 04:55:26;;;;;;;3.35;1.98;;;15.80;97.70;;;;;;4933195;29;20103;-61
2021/10/20 04:57:53;;;;;;;6.93;2.95;;;15.80;97.80;;;;;;4931546;29;20044;-61
2021/10/20 05:00:21;;;;;;;5.63;2.67;;;15.80;97.60;;;;;;4932643;29;20063;-61
2021/10/20 05:02:48;;;;;;;4.82;2.55;;;15.80;97.70;;;;;;4933560;29;20056;-61
2021/10/20 05:05:15;;;;;;;9.98;3.55;;;15.80;97.60;;;;;;4932714;29;20599;-62
2021/10/20 05:07:49;;;;;;;15.70;4.07;;;15.80;97.70;;;;;;4947771;28;20055;-61
2021/10/20 05:10:21;;;;;;;23.77;5.00;;;15.80;97.80;;;;;;4931472;29;20044;-61
2021/10/20 05:12:48;;;;;;;9.10;4.13;;;15.80;98.00;;;;;;4940837;29;20059;-62
2021/10/20 05:15:15;;;;;;;14.43;4.60;;;15.80;97.60;;;;;;4932737;29;20115;-62
2021/10/20 05:17:42;;;;;;;18.58;5.03;;;15.80;97.60;;;;;;4939983;28;20051;-62
2021/10/20 05:20:11;;;;;;;14.55;5.38;;;15.80;97.60;;;;;;4934425;29;20142;-60
2021/10/20 05:22:38;;;;;;;13.25;4.93;;;15.80;97.80;;;;;;4957143;28;20056;-61
2021/10/20 05:25:06;;;;;;;14.25;5.25;;;15.80;97.60;;;;;;4934253;29;20111;-61
2021/10/20 05:27:33;;;;;;;11.20;5.53;;;15.80;97.50;;;;;;4931790;29;20495;-61
2021/10/20 05:30:00;;;;;;;15.95;5.22;;;15.80;97.60;;;;;;4936964;29;20051;-62
2021/10/20 05:32:28;;;;;;;17.05;4.63;;;15.80;97.60;;;;;;4940552;29;20051;-61
2021/10/20 05:34:54;;;;;;;16.70;5.03;;;15.70;97.60;;;;;;4942657;28;20136;-61
2021/10/20 05:37:21;;;;;;;19.80;5.32;;;15.70;97.60;;;;;;4940570;29;20059;-61
2021/10/20 05:39:48;;;;;;;19.02;6.90;;;15.70;97.70;;;;;;4937014;29;20154;-61
2021/10/20 05:42:16;;;;;;;17.52;5.25;;;15.80;97.70;;;;;;4938102;29;20043;-62
2021/10/20 05:44:42;;;;;;;20.48;6.07;;;15.70;98.00;;;;;;4937089;28;20135;-61
2021/10/20 05:47:10;;;;;;;16.10;4.57;;;15.80;98.00;;;;;;4939384;28;20562;-61
2021/10/20 05:49:37;;;;;;;18.13;5.00;;;15.70;97.90;;;;;;4938311;29;20172;-62
2021/10/20 05:52:04;;;;;;;10.30;4.15;;;15.80;98.00;;;;;;4932204;29;20491;-62
2021/10/20 05:54:31;;;;;;;13.75;4.80;;;15.80;98.10;;;;;;4945736;29;20043;-61
2021/10/20 05:56:58;;;;;;;16.00;4.30;;;15.80;98.00;;;;;;4935339;29;20454;-63
2021/10/20 05:59:24;;;;;;;7.43;3.17;;;15.80;97.90;;;;;;4942278;29;20067;-64
2021/10/20 06:01:51;;;;;;;16.15;5.60;;;15.80;98.00;;;;;;4943178;29;20055;-62
2021/10/20 06:04:19;;;;;;;14.77;5.10;;;15.80;98.20;;;;;;4937713;29;20142;-62
2021/10/20 06:06:46;;;;;;;7.90;3.55;;;15.80;98.00;;;;;;4954780;28;20051;-62
2021/10/20 06:09:13;;;;;;;16.27;4.05;;;15.80;98.20;;;;;;4934846;29;20047;-62
2021/10/20 06:11:40;;;;;;;16.48;3.65;;;15.90;98.10;;;;;;4936053;29;20071;-62
2021/10/20 06:14:06;;;;;;;8.00;4.13;;;15.90;98.10;;;;;;4939576;29;20530;-62
2021/10/20 06:16:36;;;;;;;20.40;4.63;;;15.90;98.10;;;;;;4937735;29;20059;-61
2021/10/20 06:19:03;;;;;;;15.45;4.40;;;15.90;98.20;;;;;;4954142;28;20103;-61
2021/10/20 06:21:31;;;;;;;13.40;4.13;;;15.90;98.10;;;;;;4934191;29;20487;-61
2021/10/20 06:23:57;;;;;;;9.57;3.25;;;15.90;98.10;;;;;;4933175;29;20059;-62
2021/10/20 06:26:24;;;;;;;15.60;4.72;;;16.00;98.20;;;;;;4934871;29;20471;-62
2021/10/20 06:28:51;;;;;;;13.77;3.85;;;16.00;98.10;;;;;;4938238;29;20051;-61
2021/10/20 06:31:18;;;;;;;10.80;3.72;;;16.00;98.00;;;;;;4936146;29;20103;-62
2021/10/20 06:33:45;;;;;;;9.68;2.70;;;16.00;98.00;;;;;;4945090;28;20511;-62
2021/10/20 06:36:23;;;;;;;12.10;4.25;;;16.00;97.90;;;;;;4949767;28;20286;-61
2021/10/20 06:38:50;;;;;;;10.45;3.63;;;16.00;97.90;;;;;;4952134;28;20383;-62
2021/10/20 06:41:16;;;;;;;11.07;3.47;;;16.00;97.70;;;;;;4927934;29;20051;-61
2021/10/20 06:43:43;;;;;;;12.52;3.53;;;16.00;97.70;;;;;;4936093;29;20060;-61
2021/10/20 06:46:10;;;;;;;10.23;3.63;;;16.00;97.60;;;;;;4935099;29;20058;-61
2021/10/20 06:48:38;;;;;;;12.23;3.30;;;16.00;97.40;;;;;;4949653;28;20043;-60
2021/10/20 06:51:06;;;;;;;10.43;3.47;;;16.00;97.60;;;;;;4606236;28;9999895;-62
2021/10/20 06:53:32;;;;;;;10.55;2.90;;;16.00;97.40;;;;;;4931029;29;20047;-60
2021/10/20 06:56:01;;;;;;;9.75;3.25;;;16.00;97.70;;;;;;4932384;29;20558;-61
2021/10/20 06:58:27;;;;;;;7.93;2.97;;;16.00;97.50;;;;;;4930672;29;20060;-62
2021/10/20 07:00:55;;;;;;;12.10;2.65;;;16.00;97.40;;;;;;4928510;29;20047;-61
2021/10/20 07:03:22;;;;;;;12.65;4.05;;;16.00;97.20;;;;;;4947454;28;20054;-60
2021/10/20 07:05:49;;;;;;;12.02;3.35;;;16.00;97.30;;;;;;4928862;29;20514;-60
2021/10/20 07:08:16;;;;;;;10.25;3.75;;;16.10;97.30;;;;;;4933023;29;20051;-59
2021/10/20 07:10:43;;;;;;;6.88;2.90;;;16.00;97.20;;;;;;4933493;29;20051;-59
2021/10/20 07:13:10;;;;;;;9.98;3.08;;;16.00;97.10;;;;;;4928731;29;20058;-61
2021/10/20 07:15:37;;;;;;;15.25;3.63;;;16.10;97.00;;;;;;4936874;29;20126;-60
2021/10/20 07:18:04;;;;;;;12.07;4.10;;;16.00;97.00;;;;;;4933308;29;20055;-61
2021/10/20 07:20:30;;;;;;;8.68;2.95;;;16.00;96.90;;;;;;4933926;29;20134;-59
2021/10/20 07:22:57;;;;;;;17.92;5.18;;;16.00;96.80;;;;;;4933146;29;20536;-60
2021/10/20 07:25:24;;;;;;;13.48;3.97;;;16.00;96.60;;;;;;4931582;29;20074;-60
2021/10/20 07:27:51;;;;;;;10.35;3.25;;;16.00;96.40;;;;;;4931945;29;20052;-61
2021/10/20 07:30:18;;;;;;;12.25;4.00;;;16.00;96.70;;;;;;4929566;29;20051;-60
2021/10/20 07:32:45;;;;;;;14.82;4.65;;;16.00;96.70;;;;;;4935715;29;20055;-60
2021/10/20 07:35:14;;;;;;;15.43;5.28;;;16.00;96.60;;;;;;4931061;29;20701;-59
2021/10/20 07:37:41;;;;;;;17.10;3.85;;;16.00;96.90;;;;;;4929994;29;20043;-60
2021/10/20 07:40:09;;;;;;;12.98;4.35;;;16.00;96.60;;;;;;4926673;29;20207;-60
2021/10/20 07:42:37;;;;;;;18.77;4.40;;;16.00;96.50;;;;;;4932985;28;20134;-59
2021/10/20 07:45:05;;;;;;;15.90;4.28;;;16.00;96.30;;;;;;4931466;28;20059;-59
2021/10/20 07:47:32;;;;;;;10.07;4.35;;;16.00;96.40;;;;;;4927773;29;20142;-60
2021/10/20 07:49:59;;;;;;;15.00;7.25;;;16.00;96.20;;;;;;4927026;29;20447;-59
2021/10/20 07:52:28;;;;;;;12.07;4.53;;;15.90;96.20;;;;;;4921971;29;20083;-59
2021/10/20 07:54:55;;;;;;;12.80;3.08;;;15.90;96.30;;;;;;4928357;29;20549;-61
2021/10/20 07:57:22;;;;;;;15.82;4.38;;;15.90;95.20;;;;;;4938244;28;20092;-61
2021/10/20 07:59:49;;;;;;;16.15;4.10;;;15.90;95.60;;;;;;4938146;29;20043;-59
2021/10/20 08:02:16;;;;;;;8.75;3.63;;;15.90;95.30;;;;;;4931700;29;20055;-59
2021/10/20 08:04:43;;;;;;;25.55;5.72;;;15.80;95.70;;;;;;4930295;29;20056;-60
2021/10/20 08:07:10;;;;;;;17.80;4.10;;;15.90;95.10;;;;;;4952954;28;20118;-60
2021/10/20 08:09:37;;;;;;;20.98;5.45;;;15.80;95.60;;;;;;4931559;29;20507;-59
2021/10/20 08:12:04;;;;;;;20.35;3.47;;;15.90;95.30;;;;;;4935130;29;20090;-59
2021/10/20 08:14:33;;;;;;;14.32;3.03;;;15.80;95.20;;;;;;4928772;29;20143;-60
2021/10/20 08:17:00;;;;;;;15.48;3.95;;;15.90;95.30;;;;;;4930481;29;20857;-61
2021/10/20 08:19:27;;;;;;;20.17;4.88;;;15.80;95.50;;;;;;4928989;28;20055;-59
2021/10/20 08:21:54;;;;;;;18.40;4.22;;;15.80;94.90;;;;;;4926694;29;20123;-60
2021/10/20 08:24:20;;;;;;;12.57;3.30;;;15.90;94.60;;;;;;4944058;28;20143;-60
2021/10/20 08:26:47;;;;;;;17.42;4.00;;;15.90;95.40;;;;;;4928772;29;20075;-59
2021/10/20 08:29:14;;;;;;;18.13;5.43;;;15.90;94.80;;;;;;4944157;28;20052;-60
2021/10/20 08:31:41;;;;;;;13.80;3.70;;;15.90;95.00;;;;;;4927176;29;20130;-60
2021/10/20 08:34:08;;;;;;;8.90;3.20;;;15.90;95.10;;;;;;4926422;29;20067;-60
2021/10/20 08:36:35;;;;;;;15.65;3.13;;;15.90;94.80;;;;;;4926230;29;20051;-62
2021/10/20 08:39:02;;;;;;;18.27;4.00;;;16.00;94.70;;;;;;4909653;29;20087;-59
2021/10/20 08:41:29;;;;;;;12.98;2.92;;;16.00;94.60;;;;;;4926905;29;20059;-60
2021/10/20 08:43:57;;;;;;;12.82;3.25;;;16.00;94.60;;;;;;4924951;29;20107;-60
2021/10/20 08:46:25;;;;;;;9.15;2.50;;;16.00;94.30;;;;;;4941397;28;20083;-60
2021/10/20 08:48:53;;;;;;;13.50;3.17;;;16.10;94.00;;;;;;4930321;29;20047;-59
2021/10/20 08:51:20;;;;;;;21.83;4.00;;;16.10;94.10;;;;;;4928845;28;20099;-61
2021/10/20 08:53:47;;;;;;;10.43;2.80;;;16.10;94.20;;;;;;4924980;29;20097;-70
2021/10/20 08:56:18;;;;;;;20.58;3.92;;;16.10;93.90;;;;;;4933166;29;20055;-61
2021/10/20 08:58:45;;;;;;;12.27;3.53;;;16.10;94.40;;;;;;4934576;29;20095;-61
2021/10/20 09:01:12;;;;;;;14.30;4.35;;;16.10;94.00;;;;;;4933626;29;20150;-60
2021/10/20 09:03:39;;;;;;;14.80;3.83;;;16.10;94.00;;;;;;4934546;29;20087;-60
2021/10/20 09:06:06;;;;;;;17.90;4.40;;;16.20;94.20;;;;;;4933082;29;20060;-60
2021/10/20 09:08:43;;;;;;;19.23;5.90;;;16.20;94.30;;;;;;4941957;28;20044;-59
2021/10/20 09:11:33;;;;;;;14.80;4.18;;;16.20;93.30;;;;;;4948689;28;20071;-60
2021/10/20 09:14:11;;;;;;;26.05;5.50;;;16.20;93.40;;;;;;4933271;29;20237;-60
2021/10/20 09:16:39;;;;;;;17.23;3.60;;;16.20;93.40;;;;;;4933731;29;20052;-62
2021/10/20 09:19:34;;;;;;;20.73;4.22;;;16.20;94.40;;;;;;4933874;29;20052;-59
2021/10/20 09:22:02;;;;;;;19.60;3.47;;;16.20;93.00;;;;;;4928356;29;20191;-60
2021/10/20 09:24:33;;;;;;;24.23;3.72;;;16.30;94.00;;;;;;4931766;29;20105;-60
2021/10/20 09:27:01;;;;;;;13.35;3.67;;;16.30;94.20;;;;;;4934000;29;20112;-60
2021/10/20 09:29:30;;;;;;;12.57;3.25;;;16.30;94.00;;;;;;4931736;29;20083;-60
2021/10/20 09:31:57;;;;;;;22.30;4.13;;;16.40;94.10;;;;;;4931756;29;20051;-63
2021/10/20 09:34:37;;;;;;;18.63;6.07;;;16.40;93.80;;;;;;4928463;29;20048;-60
2021/10/20 09:37:04;;;;;;;20.33;4.85;;;16.40;93.70;;;;;;4929474;29;20079;-61
2021/10/20 09:39:32;;;;;;;12.00;2.95;;;16.40;93.60;;;;;;4931485;29;20456;-59
2021/10/20 09:42:09;;;;;;;12.77;3.10;;;16.40;93.00;;;;;;4916473;29;20071;-60
2021/10/20 09:44:50;;;;;;;21.80;6.30;;;16.40;92.90;;;;;;4929820;29;20487;-59
2021/10/20 09:47:17;;;;;;;18.73;3.10;;;16.50;92.90;;;;;;4929870;29;20440;-61
2021/10/20 09:49:48;;;;;;;19.00;5.50;;;16.50;93.60;;;;;;4930032;29;20598;-61
2021/10/20 09:52:15;;;;;;;15.55;4.00;;;16.50;93.00;;;;;;4933548;29;20070;-61
2021/10/20 09:54:44;;;;;;;10.23;2.75;;;16.50;93.40;;;;;;4947532;28;20167;-61
2021/10/20 09:57:13;;;;;;;18.13;3.83;;;16.50;93.30;;;;;;4931450;29;20079;-61
2021/10/20 09:59:40;;;;;;;17.30;3.67;;;16.50;92.90;;;;;;4932621;29;20079;-59
2021/10/20 10:02:08;;;;;;;20.90;2.97;;;16.60;93.40;;;;;;4930470;29;20111;-60
2021/10/20 10:04:37;;;;;;;12.55;3.70;;;16.50;93.00;;;;;;4924067;28;20057;-60
2021/10/20 10:07:04;;;;;;;15.55;2.95;;;16.50;92.80;;;;;;4932720;29;20052;-60
2021/10/20 10:09:31;;;;;;;18.25;3.53;;;16.50;92.40;;;;;;4946949;28;20090;-59
2021/10/20 10:12:08;;;;;;;15.00;2.92;;;16.50;92.40;;;;;;4929345;29;20056;-59
2021/10/20 10:14:39;;;;;;;17.40;3.40;;;16.50;92.50;;;;;;4932581;28;20111;-60
2021/10/20 10:17:06;;;;;;;21.42;3.78;;;16.60;92.40;;;;;;4927591;29;20082;-60
2021/10/20 10:19:35;;;;;;;15.25;3.97;;;16.70;92.80;;;;;;4942449;28;20047;-61
2021/10/20 10:22:25;;;;;;;16.20;3.20;;;16.80;92.70;;;;;;4926157;29;20574;-61
2021/10/20 10:24:53;;;;;;;24.15;3.97;;;16.90;91.90;;;;;;4938168;28;20055;-59
2021/10/20 10:27:20;;;;;;;26.17;5.65;;;17.00;92.50;;;;;;4931337;29;20055;-60
2021/10/20 10:29:52;;;;;;;21.27;3.42;;;17.00;92.40;;;;;;4934551;29;20086;-60
2021/10/20 10:32:39;;;;;;;26.52;5.10;;;17.10;91.30;;;;;;4930173;29;20050;-60
2021/10/20 10:35:06;;;;;;;19.33;3.28;;;17.20;90.70;;;;;;4935397;29;20130;-60
2021/10/20 10:37:34;;;;;;;20.95;3.67;;;17.20;91.50;;;;;;4935874;29;20647;-61
2021/10/20 10:40:21;;;;;;;18.13;3.20;;;17.30;90.20;;;;;;4935985;29;20063;-60
2021/10/20 10:42:49;;;;;;;21.60;4.70;;;17.30;90.00;;;;;;4937146;29;20051;-61
2021/10/20 10:45:17;;;;;;;26.08;4.35;;;17.30;91.00;;;;;;4934021;29;20067;-60
2021/10/20 10:47:55;;;;;;;20.27;3.40;;;17.30;90.80;;;;;;4937454;29;20062;-60
2021/10/20 10:50:43;;;;;;;16.60;3.70;;;17.30;88.70;;;;;;4935629;29;20083;-60
2021/10/20 10:53:35;;;;;;;18.20;3.00;;;17.30;89.50;;;;;;4941810;28;20079;-59
2021/10/20 10:56:11;;;;;;;21.60;3.55;;;17.30;90.10;;;;;;4929991;29;20047;-60
2021/10/20 10:59:02;;;;;;;16.08;3.03;;;17.30;89.20;;;;;;4937273;28;20075;-60
2021/10/20 11:01:46;;;;;;;23.50;3.63;;;17.30;88.50;;;;;;4929557;29;20071;-60
2021/10/20 11:04:19;;;;;;;23.15;4.32;;;17.30;86.50;;;;;;4935792;29;20062;-60
2021/10/20 11:06:52;;;;;;;18.85;3.78;;;17.40;88.90;;;;;;4941906;29;20079;-61
2021/10/20 11:09:22;;;;;;;20.20;3.50;;;17.40;90.20;;;;;;4939114;29;20324;-59
2021/10/20 11:11:51;;;;;;;21.02;4.88;;;17.40;88.70;;;;;;4942050;28;20297;-59
2021/10/20 11:14:20;;;;;;;28.05;4.30;;;17.40;90.20;;;;;;4940099;29;20051;-60
2021/10/20 11:16:56;;;;;;;19.15;3.20;;;17.40;90.00;;;;;;4940502;29;20068;-59
2021/10/20 11:19:24;;;;;;;15.18;4.32;;;17.40;87.90;;;;;;4939520;29;20048;-59
2021/10/20 11:21:50;;;;;;;15.77;3.72;;;17.50;89.80;;;;;;4954340;28;20043;-60
2021/10/20 11:24:17;;;;;;;19.33;3.05;;;17.50;88.70;;;;;;4940454;29;20067;-60
2021/10/20 11:26:47;;;;;;;20.63;3.78;;;17.60;89.60;;;;;;4939909;29;20143;-59
2021/10/20 11:29:14;;;;;;;15.75;3.65;;;17.60;88.30;;;;;;4941284;29;20055;-60
2021/10/20 11:31:51;;;;;;;20.38;5.03;;;17.50;86.70;;;;;;4936189;29;20075;-60
2021/10/20 11:34:19;;;;;;;16.75;3.70;;;17.50;88.00;;;;;;4955317;28;20059;-60
2021/10/20 11:36:46;;;;;;;22.15;4.07;;;17.40;89.30;;;;;;4940035;29;20055;-60
2021/10/20 11:39:13;;;;;;;16.25;3.58;;;17.30;90.00;;;;;;4939602;29;20051;-59
2021/10/20 11:41:54;;;;;;;15.77;3.30;;;17.20;90.40;;;;;;4937906;29;20143;-60
2021/10/20 11:44:28;;;;;;;28.17;5.07;;;17.00;90.00;;;;;;4934948;29;20044;-61
2021/10/20 11:46:59;;;;;;;21.48;4.32;;;16.90;89.90;;;;;;4935500;29;20492;-59
2021/10/20 11:49:26;;;;;;;17.42;3.92;;;16.90;90.70;;;;;;4939081;29;20071;-60
2021/10/20 11:51:53;;;;;;;27.00;3.80;;;16.80;90.60;;;;;;4934488;29;20103;-60
2021/10/20 11:54:28;;;;;;;19.10;3.72;;;16.80;90.50;;;;;;4938043;29;20146;-60
2021/10/20 11:56:56;;;;;;;20.48;3.30;;;16.70;89.40;;;;;;4929277;29;20047;-62
2021/10/20 11:59:24;;;;;;;27.42;4.45;;;16.80;89.90;;;;;;4936249;29;20126;-59
2021/10/20 12:01:51;;;;;;;20.55;5.07;;;16.80;90.10;;;;;;4933140;29;20047;-59
2021/10/20 12:04:25;;;;;;;16.54;3.43;;;16.80;90.00;;;;;;4849213;28;10000861;-59
2021/10/20 12:06:56;;;;;;;20.55;2.85;;;16.80;89.30;;;;;;4931505;29;20344;-60
2021/10/20 12:09:23;;;;;;;20.48;2.80;;;16.90;87.90;;;;;;4926849;29;20091;-62
2021/10/20 12:11:51;;;;;;;13.23;2.28;;;16.90;88.00;;;;;;4946838;28;20103;-59
2021/10/20 12:14:19;;;;;;;15.98;3.92;;;17.00;86.50;;;;;;4928370;29;20052;-60
2021/10/20 12:16:47;;;;;;;10.90;2.47;;;17.00;85.30;;;;;;4938677;29;20054;-60
2021/10/20 12:19:15;;;;;;;17.50;2.78;;;17.00;85.60;;;;;;4932255;29;20095;-60
2021/10/20 12:21:43;;;;;;;14.40;2.72;;;17.10;85.30;;;;;;4940248;29;20611;-60
2021/10/20 12:24:15;;;;;;;23.33;5.40;;;17.10;84.30;;;;;;4930727;29;20059;-60
2021/10/20 12:26:43;;;;;;;11.32;1.88;;;17.10;84.30;;;;;;4933084;29;20082;-60
2021/10/20 12:29:11;;;;;;;13.30;2.72;;;17.20;84.00;;;;;;4934252;29;20381;-60
2021/10/20 12:31:38;;;;;;;13.95;3.00;;;17.20;79.50;;;;;;4936134;29;20083;-59
2021/10/20 12:34:05;;;;;;;13.55;1.75;;;17.30;79.90;;;;;;4944148;29;20131;-58
2021/10/20 12:36:34;;;;;;;10.27;1.80;;;17.30;78.70;;;;;;4953512;28;20055;-60
2021/10/20 12:39:02;;;;;;;8.15;1.58;;;17.40;79.30;;;;;;4942264;29;20082;-59
2021/10/20 12:41:29;;;;;;;7.57;2.17;;;17.60;79.90;;;;;;4938138;29;20052;-60
2021/10/20 12:43:58;;;;;;;14.38;2.92;;;17.70;79.90;;;;;;4938690;29;20048;-59